Time;durP1;ratioP1;P1;durP2;ratioP2;P2;SDS_P1;SDS_P2;PMS_P1;PMS_P2;Temp;Humidity;BMP_temperature;BMP_pressure;BME280_temperature;BME280_humidity;BME280_pressure;Samples;Min_cycle;Max_cycle;Signal;HPM_P1;HPM_P2
2022/09/21 00:01:57;;;;;;;405.40;12.95;;;;;;;8.72;67.81;100842.59;10361828;28;20050;-81
2022/09/21 00:06:58;;;;;;;468.52;13.60;;;;;;;8.66;67.92;100852.38;10363213;28;20257;-81
2022/09/21 00:12:01;;;;;;;213.45;8.30;;;;;;;8.72;67.83;100849.53;10370103;28;20103;-81
2022/09/21 00:17:03;;;;;;;692.47;18.50;;;;;;;8.74;67.60;100855.56;10370360;28;21053;-81
2022/09/21 00:22:06;;;;;;;201.45;8.68;;;;;;;8.74;67.46;100850.34;10372900;28;20080;-81
2022/09/21 00:27:07;;;;;;;182.73;7.43;;;;;;;8.80;67.47;100847.50;10376062;28;20042;-81
2022/09/21 00:32:09;;;;;;;306.48;11.13;;;;;;;8.70;67.62;100849.63;10402106;28;20056;-81
2022/09/21 00:37:11;;;;;;;187.32;7.90;;;;;;;8.65;67.91;100855.88;10366480;28;20088;-81
2022/09/21 00:42:17;;;;;;;253.50;8.80;;;;;;;8.67;67.64;100856.69;10370309;28;20038;-81
2022/09/21 00:47:30;;;;;;;316.88;9.80;;;;;;;8.47;67.82;100859.16;10369595;28;20065;-81
2022/09/21 00:52:34;;;;;;;311.02;10.77;;;;;;;8.51;67.90;100869.44;10369224;28;20060;-81
2022/09/21 00:57:36;;;;;;;424.98;12.60;;;;;;;8.42;67.99;100859.38;10373325;28;20059;-81
2022/09/21 01:02:38;;;;;;;158.20;7.47;;;;;;;8.45;68.16;100868.81;10374217;28;20066;-81
2022/09/21 01:07:44;;;;;;;261.48;9.38;;;;;;;8.53;67.80;100867.63;10372123;28;20053;-81
2022/09/21 01:13:12;;;;;;;482.33;13.15;;;;;;;8.52;67.70;100862.47;10374818;28;20494;-81
2022/09/21 01:24:20;;;;;;;242.18;8.85;;;;;;;8.52;68.13;100875.50;10372176;28;20049;-81
2022/09/21 01:29:27;;;;;;;545.58;19.00;;;;;;;8.56;66.91;100869.28;10375722;28;20060;-81
2022/09/21 01:34:35;;;;;;;229.68;8.45;;;;;;;8.47;67.61;100867.00;10387898;28;21021;-81
2022/09/21 01:39:41;;;;;;;135.35;7.30;;;;;;;8.50;67.73;100877.31;10386122;28;20060;-81
2022/09/21 01:44:44;;;;;;;233.30;8.75;;;;;;;8.47;68.14;100877.41;10375738;28;20061;-81
2022/09/21 01:49:53;;;;;;;319.02;11.88;;;;;;;8.30;67.59;100874.59;10379306;28;20056;-81
2022/09/21 01:55:03;;;;;;;312.88;11.75;;;;;;;8.34;67.85;100878.78;10373856;28;20431;-81
2022/09/21 02:00:07;;;;;;;492.10;14.05;;;;;;;8.29;67.81;100878.94;10387933;28;20407;-81
2022/09/21 02:05:10;;;;;;;371.02;10.43;;;;;;;8.24;68.00;100880.00;10377138;28;20061;-81
2022/09/21 02:10:25;;;;;;;259.58;8.93;;;;;;;8.32;67.77;100878.84;10381617;28;20483;-81
2022/09/21 02:15:37;;;;;;;265.98;10.40;;;;;;;8.27;67.55;100880.75;10378649;28;20067;-81
2022/09/21 02:20:47;;;;;;;182.88;8.10;;;;;;;8.21;67.50;100878.34;10393787;28;20068;-81
2022/09/21 02:25:55;;;;;;;425.02;14.68;;;;;;;8.28;67.47;100881.59;10381621;28;20053;-81
2022/09/21 02:31:22;;;;;;;379.80;12.70;;;;;;;8.10;67.55;100867.44;10396225;28;20058;-81
2022/09/21 02:36:34;;;;;;;177.50;8.75;;;;;;;8.25;67.82;100866.06;10378588;28;20089;-81
2022/09/21 02:42:00;;;;;;;492.63;16.35;;;;;;;8.22;67.21;100868.78;10409449;28;20080;-81
2022/09/21 02:47:11;;;;;;;295.77;10.93;;;;;;;8.20;67.84;100874.03;10413928;28;20056;-81
2022/09/21 02:52:15;;;;;;;236.93;10.65;;;;;;;8.24;67.59;100869.59;10380058;28;20053;-81
2022/09/21 02:57:20;;;;;;;364.73;13.05;;;;;;;8.31;67.69;100871.91;10378292;28;20042;-81
2022/09/21 03:02:22;;;;;;;333.27;12.70;;;;;;;8.23;67.39;100873.94;10375023;28;20534;-81
2022/09/21 03:07:24;;;;;;;382.23;14.77;;;;;;;8.32;67.43;100870.16;10374063;28;20411;-81
2022/09/21 03:12:26;;;;;;;174.32;8.32;;;;;;;8.43;67.60;100868.88;10373323;28;20061;-81
2022/09/21 03:17:27;;;;;;;189.27;8.52;;;;;;;8.45;67.26;100871.41;10371636;28;20053;-81
2022/09/21 03:22:29;;;;;;;581.42;21.63;;;;;;;8.37;67.02;100876.06;10368876;28;20418;-81
2022/09/21 03:27:31;;;;;;;257.90;11.95;;;;;;;8.24;67.44;100880.84;10367988;28;20050;-81
2022/09/21 03:32:32;;;;;;;401.38;17.70;;;;;;;8.16;67.40;100889.84;10372327;28;20061;-82
2022/09/21 03:37:34;;;;;;;410.38;17.95;;;;;;;8.17;67.32;100889.78;10374442;28;20061;-82
2022/09/21 03:42:42;;;;;;;127.25;9.05;;;;;;;8.08;67.91;100897.88;10371276;28;20061;-81
2022/09/21 03:47:44;;;;;;;116.13;10.30;;;;;;;8.21;67.87;100890.53;10372075;28;20045;-81
2022/09/21 03:52:45;;;;;;;160.45;10.73;;;;;;;8.21;67.62;100896.59;10367854;28;20058;-81
2022/09/21 03:57:47;;;;;;;271.73;14.43;;;;;;;8.02;67.56;100891.13;10368535;28;20072;-80
2022/09/21 04:02:49;;;;;;;267.58;13.40;;;;;;;8.00;67.59;100899.91;10367992;28;20072;-81
2022/09/21 04:07:50;;;;;;;85.85;9.40;;;;;;;8.04;67.76;100897.13;10372200;28;20072;-82
2022/09/21 04:12:56;;;;;;;44.50;7.60;;;;;;;8.12;67.33;100891.69;10369750;28;20076;-81
2022/09/21 04:17:58;;;;;;;117.32;10.95;;;;;;;7.95;67.08;100899.22;10366532;28;20492;-81
2022/09/21 04:23:00;;;;;;;99.95;10.75;;;;;;;7.79;67.23;100903.22;10368388;28;20518;-81
2022/09/21 04:28:31;;;;;;;43.03;8.18;;;;;;;7.78;67.27;100904.97;10347042;28;20053;-81
2022/09/21 04:33:33;;;;;;;35.75;8.75;;;;;;;7.70;67.79;100909.59;10372220;28;20058;-82
2022/09/21 04:38:35;;;;;;;137.13;14.60;;;;;;;7.74;67.37;100908.59;10370314;28;20049;-81
2022/09/21 04:43:37;;;;;;;219.52;12.65;;;;;;;7.81;67.09;100909.25;10402535;28;20045;-81
2022/09/21 04:48:39;;;;;;;100.75;9.13;;;;;;;7.75;67.57;100912.06;10374289;28;20073;-81
2022/09/21 04:53:42;;;;;;;103.28;10.50;;;;;;;7.85;67.57;100919.47;10368989;28;20558;-81
2022/09/21 04:58:44;;;;;;;173.70;12.13;;;;;;;7.89;67.54;100915.06;10369824;28;20974;-81
2022/09/21 05:03:46;;;;;;;286.63;15.35;;;;;;;7.91;67.62;100924.53;10372673;28;20433;-81
2022/09/21 05:14:08;;;;;;;100.85;10.20;;;;;;;7.87;67.55;100925.53;10369855;28;20046;-81
2022/09/21 05:19:10;;;;;;;74.22;9.35;;;;;;;7.95;67.53;100931.34;10365929;28;20076;-81
2022/09/21 05:24:12;;;;;;;127.32;10.70;;;;;;;8.00;67.19;100934.63;10369053;28;20041;-81
2022/09/21 05:29:14;;;;;;;344.25;21.30;;;;;;;7.89;66.88;100952.38;10366965;28;20042;-81
2022/09/21 05:34:39;;;;;;;264.85;15.52;;;;;;;7.66;66.77;100962.66;10371527;28;20049;-81
2022/09/21 05:39:42;;;;;;;72.95;9.20;;;;;;;7.61;67.59;100959.34;10369049;28;20050;-81
2022/09/21 05:44:44;;;;;;;150.95;9.25;;;;;;;7.77;67.29;100962.31;10373914;28;20061;-81
2022/09/21 05:50:05;;;;;;;133.15;9.68;;;;;;;7.64;67.45;100961.84;10379023;28;20061;-81
2022/09/21 05:55:34;;;;;;;308.50;16.02;;;;;;;7.61;67.73;100967.13;10376558;28;20989;-81
2022/09/21 06:00:45;;;;;;;142.63;9.85;;;;;;;7.72;67.38;100970.28;10375395;28;20051;-81
2022/09/21 06:05:47;;;;;;;79.25;9.00;;;;;;;7.81;67.46;100971.75;10391222;28;20064;-82
2022/09/21 06:10:49;;;;;;;64.72;7.93;;;;;;;7.93;67.11;100974.81;10378403;28;20044;-81
2022/09/21 06:15:51;;;;;;;135.65;9.10;;;;;;;8.00;67.08;100986.72;10373962;28;20045;-81
2022/09/21 06:20:53;;;;;;;102.18;8.32;;;;;;;8.04;66.76;100990.94;10368496;28;20870;-81
2022/09/21 06:25:55;;;;;;;213.82;10.38;;;;;;;8.09;66.81;100988.19;10361962;28;20511;-80
2022/09/21 06:30:59;;;;;;;275.50;12.52;;;;;;;8.15;66.56;100981.94;10375699;28;20134;-81
2022/09/21 06:36:01;;;;;;;86.90;8.52;;;;;;;8.31;66.46;100980.53;10372717;28;20057;-80
2022/09/21 06:41:03;;;;;;;107.45;9.13;;;;;;;8.29;66.55;100990.16;10371625;28;20903;-80
2022/09/21 06:46:05;;;;;;;133.55;11.35;;;;;;;8.20;66.50;100983.47;10387156;28;20049;-80
2022/09/21 06:51:08;;;;;;;312.15;19.08;;;;;;;8.39;66.75;100986.31;10401459;28;20099;-80
2022/09/21 06:56:11;;;;;;;216.93;13.27;;;;;;;8.49;66.05;100987.72;10371036;28;20147;-80
2022/09/21 07:01:14;;;;;;;340.98;19.20;;;;;;;8.50;65.87;100992.03;10374761;28;20144;-81
2022/09/21 07:06:17;;;;;;;209.57;14.43;;;;;;;8.55;66.29;100996.19;10372880;28;20061;-81
2022/09/21 07:11:19;;;;;;;110.80;10.13;;;;;;;8.74;66.20;101001.59;10373279;28;20518;-81
2022/09/21 07:16:22;;;;;;;120.35;12.32;;;;;;;8.70;65.94;100998.25;10372529;28;20315;-81
2022/09/21 07:21:24;;;;;;;227.52;19.02;;;;;;;8.75;66.11;101003.31;10372714;28;20057;-80
2022/09/21 07:26:25;;;;;;;61.60;11.65;;;;;;;8.84;65.75;101000.38;10373924;28;20085;-80
2022/09/21 07:31:27;;;;;;;76.30;11.32;;;;;;;8.82;65.58;101002.19;10373660;28;20053;-81
2022/09/21 07:36:29;;;;;;;119.38;11.68;;;;;;;8.82;65.59;100996.97;10369939;28;20059;-82
2022/09/21 07:41:31;;;;;;;134.73;15.90;;;;;;;9.18;65.33;100995.63;10368093;28;20825;-81
2022/09/21 07:46:32;;;;;;;84.60;11.43;;;;;;;9.25;65.15;101001.47;10369387;28;20050;-82
2022/09/21 07:51:34;;;;;;;112.38;15.68;;;;;;;9.22;65.04;100996.38;10371227;28;20053;-81
2022/09/21 07:56:36;;;;;;;120.57;13.00;;;;;;;9.29;65.11;100996.09;10370855;28;20053;-81
2022/09/21 08:01:40;;;;;;;15.63;8.57;;;;;;;9.47;65.25;100995.38;10368595;28;20045;-81
2022/09/21 08:06:42;;;;;;;72.43;15.40;;;;;;;9.86;64.55;100992.16;10374668;28;20093;-81
2022/09/21 08:11:45;;;;;;;50.97;9.55;;;;;;;9.81;64.03;100991.50;10373049;28;20050;-81
2022/09/21 08:16:46;;;;;;;45.72;14.82;;;;;;;9.97;64.38;100990.78;10366775;28;20057;-82
2022/09/21 08:21:50;;;;;;;30.20;9.88;;;;;;;10.07;64.05;100993.91;10371246;28;20054;-81
2022/09/21 08:26:58;;;;;;;26.95;12.30;;;;;;;10.36;63.33;100994.38;10373666;28;20063;-82
2022/09/21 08:32:01;;;;;;;26.35;12.77;;;;;;;10.47;62.82;100996.56;10406901;28;20046;-82
2022/09/21 08:37:03;;;;;;;12.10;9.55;;;;;;;10.33;63.53;101004.13;10372256;28;20096;-82
2022/09/21 08:42:24;;;;;;;18.45;10.20;;;;;;;10.35;62.48;101002.31;10372264;28;20052;-84
2022/09/21 08:48:04;;;;;;;;;;;;;;;10.28;63.44;101004.31;10369392;28;20057;-83
2022/09/21 08:53:20;;;;;;;14.45;10.27;;;;;;;10.90;62.39;101001.66;10350979;28;19928;-83
2022/09/21 08:58:25;;;;;;;15.05;10.85;;;;;;;10.84;61.38;101003.69;10363213;28;20046;-84
2022/09/21 09:03:39;;;;;;;16.63;11.57;;;;;;;10.67;61.62;100999.16;10384272;28;20057;-83
2022/09/21 09:09:01;;;;;;;18.98;12.98;;;;;;;10.89;61.64;100999.09;10364927;28;20057;-83
2022/09/21 09:14:24;;;;;;;17.07;12.57;;;;;;;10.73;61.65;100996.28;10367397;28;20156;-83
2022/09/21 09:19:46;;;;;;;15.02;11.23;;;;;;;11.11;60.25;100992.84;10373783;28;20419;-83
2022/09/21 09:24:47;;;;;;;19.45;10.48;;;;;;;11.37;60.56;100990.81;10372644;28;20057;-83
2022/09/21 09:30:20;;;;;;;13.75;9.23;;;;;;;11.54;59.51;100993.53;10380188;28;20056;-83
2022/09/21 09:35:29;;;;;;;16.20;10.02;;;;;;;12.14;59.35;100990.56;10375850;28;20147;-83
2022/09/21 09:40:56;;;;;;;13.88;9.57;;;;;;;12.65;57.20;100981.88;10369316;28;20046;-83
2022/09/21 09:46:18;;;;;;;15.38;9.27;;;;;;;12.89;56.31;100977.97;10373843;28;20388;-84
2022/09/21 09:51:22;;;;;;;12.30;9.02;;;;;;;12.79;57.42;100974.97;10347862;28;20053;-83
2022/09/21 09:56:25;;;;;;;12.07;8.68;;;;;;;12.64;57.46;100975.75;10371198;28;20106;-83
2022/09/21 10:01:45;;;;;;;11.65;7.93;;;;;;;12.22;57.83;100967.41;10372486;28;20430;-83
2022/09/21 10:06:48;;;;;;;10.77;8.10;;;;;;;12.20;58.27;100964.03;10392810;28;20084;-84
2022/09/21 10:11:51;;;;;;;14.27;8.43;;;;;;;12.44;58.55;100954.09;10376221;28;20046;-83
2022/09/21 10:16:55;;;;;;;11.02;7.93;;;;;;;12.54;57.41;100953.53;10375927;28;20045;-84
2022/09/21 10:21:58;;;;;;;9.70;7.05;;;;;;;12.83;57.16;100936.28;10373052;28;20491;-84
2022/09/21 10:27:10;;;;;;;12.20;7.07;;;;;;;12.86;56.14;100939.56;10410123;28;20050;-83
2022/09/21 10:32:12;;;;;;;9.23;6.22;;;;;;;13.09;56.71;100932.28;10352882;28;20049;-84
2022/09/21 10:37:27;;;;;;;10.48;6.13;;;;;;;13.21;56.01;100926.34;10376063;28;20050;-83
2022/09/21 10:42:41;;;;;;;8.88;6.25;;;;;;;13.07;55.71;100931.50;10358795;28;21333;-84
2022/09/21 10:48:08;;;;;;;11.10;5.78;;;;;;;13.03;55.98;100922.09;10373165;28;20052;-83
2022/09/21 10:53:22;;;;;;;9.88;5.60;;;;;;;13.38;56.49;100913.97;10361652;28;20415;-84
2022/09/21 10:58:26;;;;;;;8.48;5.10;;;;;;;13.39;55.53;100915.63;10389815;28;20052;-83
2022/09/21 11:03:28;;;;;;;11.65;4.85;;;;;;;13.45;55.87;100906.63;10369541;28;20057;-85
2022/09/21 11:08:49;;;;;;;6.57;3.85;;;;;;;13.56;53.57;100904.22;10370404;28;20050;-84
2022/09/21 11:14:34;;;;;;;7.70;3.22;;;;;;;13.60;53.28;100909.22;10361236;28;20431;-85
2022/09/21 11:19:43;;;;;;;6.78;3.30;;;;;;;13.86;53.00;100899.84;10367223;28;20053;-86
2022/09/21 11:24:59;;;;;;;8.02;3.05;;;;;;;14.11;52.21;100886.94;10374804;28;20058;-86
2022/09/21 11:30:04;;;;;;;6.88;2.85;;;;;;;14.12;52.43;100890.44;10366183;28;20061;-87
2022/09/21 11:35:14;;;;;;;4.40;1.90;;;;;;;14.18;51.33;100885.66;10379786;28;20060;-86
2022/09/21 11:40:31;;;;;;;6.65;2.35;;;;;;;14.23;50.94;100880.09;10369439;28;20050;-85
2022/09/21 11:46:00;;;;;;;5.57;2.60;;;;;;;14.37;49.74;100877.53;10374784;28;20976;-85
2022/09/21 11:51:17;;;;;;;5.78;2.28;;;;;;;14.66;50.83;100871.34;10374308;28;20045;-87
2022/09/21 11:56:43;;;;;;;3.75;1.90;;;;;;;14.72;48.97;100856.94;10380191;28;20049;-87
2022/09/21 12:02:00;;;;;;;7.35;2.00;;;;;;;14.92;48.24;100856.56;10395965;28;20052;-87
2022/09/21 12:07:36;;;;;;;4.95;1.50;;;;;;;15.10;46.87;100858.84;10391930;28;20050;-87
2022/09/21 12:13:21;;;;;;;5.30;1.70;;;;;;;15.17;47.06;100848.78;10371988;28;20063;-87
2022/09/21 12:18:38;;;;;;;3.38;1.70;;;;;;;15.28;46.34;100841.03;10402216;28;20054;-87
2022/09/21 12:23:58;;;;;;;5.88;1.50;;;;;;;15.40;44.84;100840.22;10376028;28;20089;-87
2022/09/21 12:29:04;;;;;;;3.70;1.75;;;;;;;15.48;46.32;100832.66;10410305;28;20052;-87
2022/09/21 12:34:19;;;;;;;5.95;1.38;;;;;;;15.76;46.37;100829.91;10379874;28;20049;-87
2022/09/21 12:39:31;;;;;;;5.30;1.27;;;;;;;15.80;45.11;100822.63;10376931;28;20049;-87
2022/09/21 12:45:01;;;;;;;2.03;1.08;;;;;;;15.95;43.37;100819.81;10393129;28;20050;-88
2022/09/21 12:50:47;;;;;;;3.03;1.40;;;;;;;15.82;43.12;100816.31;10380541;28;20055;-87
2022/09/21 12:56:10;;;;;;;4.57;1.30;;;;;;;16.18;43.41;100797.16;10381451;28;20049;-87
2022/09/21 13:01:34;;;;;;;3.65;1.00;;;;;;;16.25;42.36;100790.47;10383221;28;20500;-87
2022/09/21 13:07:04;;;;;;;1.85;1.02;;;;;;;16.33;40.78;100785.50;10386730;28;20508;-88
2022/09/21 13:12:12;;;;;;;5.60;1.00;;;;;;;16.46;43.26;100781.09;10381548;28;20072;-87
2022/09/21 13:17:24;;;;;;;2.08;1.00;;;;;;;16.66;41.31;100769.09;10388699;28;20049;-89
2022/09/21 13:22:33;;;;;;;3.03;1.10;;;;;;;16.74;39.19;100779.97;10384421;28;20045;-84
2022/09/21 13:27:59;;;;;;;2.27;1.10;;;;;;;16.78;39.65;100777.00;10413796;28;20141;-85
2022/09/21 13:33:24;;;;;;;2.65;0.80;;;;;;;16.91;39.23;100776.97;10381403;28;20625;-86
2022/09/21 13:38:28;;;;;;;6.57;1.00;;;;;;;16.87;39.38;100775.50;10379709;28;20057;-85
2022/09/21 13:43:46;;;;;;;3.22;1.10;;;;;;;16.86;38.95;100772.00;10377741;28;20053;-86
2022/09/21 13:48:52;;;;;;;4.38;1.23;;;;;;;16.89;38.94;100763.00;10378291;28;20077;-85
2022/09/21 13:53:56;;;;;;;3.85;1.00;;;;;;;17.08;39.58;100752.75;10379112;28;20419;-85
2022/09/21 13:58:58;;;;;;;3.05;1.00;;;;;;;17.04;38.92;100738.09;10377926;28;20088;-85
2022/09/21 14:04:17;;;;;;;2.70;0.90;;;;;;;17.06;36.19;100746.75;10376972;28;20404;-85
2022/09/21 14:09:30;;;;;;;2.33;0.88;;;;;;;17.13;34.19;100739.22;10374666;28;20049;-87
2022/09/21 14:14:37;;;;;;;2.95;0.88;;;;;;;17.26;36.28;100738.19;10376736;28;20050;-84
2022/09/21 14:19:42;;;;;;;3.55;0.90;;;;;;;17.20;34.35;100735.19;10376422;28;21110;-83
2022/09/21 14:24:50;;;;;;;2.05;1.00;;;;;;;17.32;34.59;100729.81;10372431;28;20058;-84
2022/09/21 14:29:58;;;;;;;3.50;1.20;;;;;;;17.44;35.71;100717.50;10371297;28;20576;-84
2022/09/21 14:35:09;;;;;;;1.58;0.88;;;;;;;17.45;35.23;100719.16;10367986;28;20100;-84
2022/09/21 14:40:23;;;;;;;1.77;0.70;;;;;;;17.38;35.26;100721.47;10368462;28;20049;-84
2022/09/21 14:45:36;;;;;;;1.52;1.00;;;;;;;17.51;35.82;100714.25;10368850;28;20591;-84
2022/09/21 14:50:56;;;;;;;3.28;1.10;;;;;;;17.77;34.21;100707.00;10374296;28;20411;-84
2022/09/21 14:56:29;;;;;;;1.98;0.90;;;;;;;17.81;35.33;100705.78;10372657;28;20056;-86
2022/09/21 15:01:30;;;;;;;3.13;1.00;;;;;;;17.89;35.27;100691.97;10371692;28;20049;-86
2022/09/21 15:12:10;;;;;;;1.33;0.80;;;;;;;17.28;35.00;100691.31;10377608;28;20045;-87
2022/09/21 15:17:27;;;;;;;1.48;0.70;;;;;;;17.28;34.63;100693.16;10378122;28;20430;-87
2022/09/21 15:22:42;;;;;;;3.33;1.00;;;;;;;17.12;36.92;100684.69;10407803;28;20049;-88
2022/09/21 15:27:46;;;;;;;1.58;0.80;;;;;;;17.14;37.17;100690.69;10392843;28;20053;-86
2022/09/21 15:33:00;;;;;;;2.67;1.00;;;;;;;17.19;36.09;100681.47;10378403;28;20415;-87
2022/09/21 15:38:03;;;;;;;1.90;0.90;;;;;;;17.14;37.11;100688.88;10371709;28;20046;-87
2022/09/21 15:43:10;;;;;;;1.98;0.77;;;;;;;16.95;36.13;100691.22;10375702;28;20484;-87
2022/09/21 15:48:13;;;;;;;3.28;1.00;;;;;;;16.68;36.99;100685.31;10377789;28;20057;-86
2022/09/21 15:53:22;;;;;;;1.48;0.75;;;;;;;16.58;37.90;100689.59;10375457;28;20080;-86
2022/09/21 15:58:35;;;;;;;2.58;0.98;;;;;;;16.67;36.07;100678.38;10375672;28;20104;-85
2022/09/21 16:03:38;;;;;;;2.03;1.00;;;;;;;16.63;36.66;100674.25;10375529;28;20084;-86
2022/09/21 16:08:40;;;;;;;4.50;0.98;;;;;;;16.73;36.33;100670.81;10370157;28;20057;-86
2022/09/21 16:19:04;;;;;;;3.05;1.00;;;;;;;16.58;37.30;100674.59;10372938;28;20384;-80
2022/09/21 16:24:17;;;;;;;1.88;0.88;;;;;;;16.43;36.19;100672.16;10369571;28;20060;-79
2022/09/21 16:29:25;;;;;;;2.28;1.00;;;;;;;16.36;37.03;100673.56;10369455;28;20046;-79
2022/09/21 16:34:34;;;;;;;2.35;0.90;;;;;;;16.23;39.73;100684.16;10370345;28;20053;-79
2022/09/21 16:39:35;;;;;;;2.67;0.80;;;;;;;16.11;40.38;100680.59;10371341;28;20053;-79
2022/09/21 16:44:43;;;;;;;1.70;0.90;;;;;;;16.05;39.92;100685.47;10373232;28;20061;-80
2022/09/21 16:49:45;;;;;;;2.53;1.00;;;;;;;15.94;40.08;100685.38;10369348;28;20216;-81
2022/09/21 16:54:48;;;;;;;1.55;0.85;;;;;;;15.83;41.83;100680.84;10369704;28;20073;-79
2022/09/21 16:59:51;;;;;;;3.00;1.17;;;;;;;15.62;42.43;100698.16;10368417;28;20056;-82
2022/09/21 17:04:52;;;;;;;2.50;1.10;;;;;;;15.43;43.25;100695.03;10358003;28;20396;-81
2022/09/21 17:09:54;;;;;;;2.67;1.20;;;;;;;15.16;44.35;100694.28;10367129;28;20046;-81
2022/09/21 17:14:56;;;;;;;2.25;1.10;;;;;;;14.82;45.62;100694.81;10371663;28;20526;-81
2022/09/21 17:20:05;;;;;;;2.20;1.10;;;;;;;14.49;46.67;100703.09;10370299;28;20423;-80
2022/09/21 17:25:08;;;;;;;2.80;1.50;;;;;;;14.14;46.29;100702.63;10365488;28;20060;-80
2022/09/21 17:30:12;;;;;;;3.33;1.50;;;;;;;13.81;46.91;100712.59;10361377;28;20052;-81
2022/09/21 17:35:39;;;;;;;3.03;1.35;;;;;;;13.46;48.87;100709.44;10367831;28;20447;-82
2022/09/21 17:40:44;;;;;;;2.40;1.30;;;;;;;13.30;49.49;100713.03;10376827;28;20060;-82
2022/09/21 17:45:50;;;;;;;3.10;1.33;;;;;;;13.11;50.79;100717.69;10404490;28;20061;-82
2022/09/21 17:50:52;;;;;;;5.30;2.10;;;;;;;12.93;51.24;100725.66;10371386;28;20049;-79
2022/09/21 17:55:57;;;;;;;4.60;1.90;;;;;;;12.71;52.11;100732.19;10357313;28;20049;-77
2022/09/21 18:01:03;;;;;;;5.30;1.45;;;;;;;12.55;52.56;100733.97;10392595;28;20065;-77
2022/09/21 18:06:06;;;;;;;3.17;1.30;;;;;;;12.38;53.16;100741.91;10364548;28;20073;-78
2022/09/21 18:11:23;;;;;;;5.85;1.45;;;;;;;12.21;53.57;100748.06;10374966;28;20076;-79
2022/09/21 18:16:50;;;;;;;4.60;1.50;;;;;;;12.04;54.41;100755.97;10388231;28;20493;-78
2022/09/21 18:22:01;;;;;;;3.45;1.60;;;;;;;11.81;55.17;100762.41;10374967;28;20046;-78
2022/09/21 18:27:03;;;;;;;5.25;1.60;;;;;;;11.70;55.67;100763.91;10374916;28;20495;-79
2022/09/21 18:32:40;;;;;;;4.32;1.45;;;;;;;11.57;56.13;100766.28;10374807;28;20053;-79
2022/09/21 18:37:59;;;;;;;5.25;1.40;;;;;;;11.44;56.73;100754.72;10390896;28;20430;-79
2022/09/21 18:43:21;;;;;;;3.67;1.50;;;;;;;11.32;56.88;100764.03;10374114;28;20055;-79
2022/09/21 18:48:29;;;;;;;4.13;1.40;;;;;;;11.15;57.45;100769.25;10363396;28;20064;-79
2022/09/21 18:53:44;;;;;;;4.55;1.50;;;;;;;11.06;57.73;100766.25;10371736;28;20053;-79
2022/09/21 18:58:48;;;;;;;6.55;1.60;;;;;;;10.86;57.55;100761.94;10372590;28;20412;-79
2022/09/21 19:03:50;;;;;;;6.75;1.50;;;;;;;10.74;58.00;100773.00;10372153;28;20068;-78
2022/09/21 19:09:18;;;;;;;5.70;1.63;;;;;;;10.64;58.23;100773.50;10370693;28;20073;-79
2022/09/21 19:14:44;;;;;;;4.47;1.92;;;;;;;10.39;58.52;100779.84;10370007;28;20057;-78
2022/09/21 19:19:46;;;;;;;5.85;1.60;;;;;;;10.18;58.73;100790.41;10382428;28;20045;-79
2022/09/21 19:25:11;;;;;;;2.97;1.60;;;;;;;10.18;59.81;100793.88;10367106;28;20045;-78
2022/09/21 19:30:15;;;;;;;4.80;1.80;;;;;;;10.18;59.67;100790.41;10372293;28;20448;-79
2022/09/21 19:35:26;;;;;;;2.80;1.60;;;;;;;10.18;60.09;100790.41;10374101;28;20435;-79
2022/09/21 19:40:32;;;;;;;;;;;;;;;9.80;60.90;100791.25;10373232;28;20045;-78
2022/09/21 19:46:09;;;;;;;4.50;1.90;;;;;;;9.98;60.49;100795.66;10370572;28;20308;-78
2022/09/21 19:51:32;;;;;;;3.50;1.83;;;;;;;9.91;60.56;100796.88;10354398;28;20136;-78
2022/09/21 20:02:03;;;;;;;3.47;1.80;;;;;;;9.74;60.77;100794.97;10368874;28;20050;-79
2022/09/21 20:07:23;;;;;;;5.50;2.00;;;;;;;9.60;61.39;100795.53;10367306;28;20248;-78
2022/09/21 20:12:40;;;;;;;5.90;1.80;;;;;;;9.59;61.29;100788.59;10399975;28;20049;-78
2022/09/21 20:17:50;;;;;;;4.78;1.85;;;;;;;9.51;61.33;100793.28;10398215;28;20065;-78
2022/09/21 20:22:53;;;;;;;4.75;1.75;;;;;;;9.48;61.17;100793.41;10368677;28;20053;-78
2022/09/21 20:27:56;;;;;;;6.22;1.80;;;;;;;9.43;61.29;100800.59;10370242;28;20077;-79
2022/09/21 20:33:13;;;;;;;6.88;1.95;;;;;;;9.30;61.65;100793.34;10361720;28;20129;-78
2022/09/21 20:38:16;;;;;;;5.90;2.20;;;;;;;9.34;61.52;100795.75;10365973;28;20518;-78
2022/09/21 20:43:21;;;;;;;4.05;1.67;;;;;;;9.32;61.55;100787.13;10366905;28;20041;-78
2022/09/21 20:48:23;;;;;;;5.95;1.90;;;;;;;9.28;61.49;100787.34;10366053;28;20526;-78
2022/09/21 20:53:25;;;;;;;7.63;1.88;;;;;;;9.22;61.63;100788.41;10368263;28;20046;-78
2022/09/21 20:58:31;;;;;;;4.90;2.15;;;;;;;9.18;62.01;100789.44;10364432;28;20504;-78
2022/09/21 21:03:33;;;;;;;5.00;2.45;;;;;;;9.13;61.79;100785.31;10367653;28;20558;-78
2022/09/21 21:08:35;;;;;;;7.00;2.67;;;;;;;9.01;62.29;100797.13;10371252;28;20050;-78
2022/09/21 21:13:36;;;;;;;5.38;2.50;;;;;;;8.96;62.25;100800.78;10380526;28;20061;-87
2022/09/21 21:18:40;;;;;;;5.20;2.30;;;;;;;8.93;62.01;100807.00;10416904;28;20052;-87
2022/09/21 21:24:42;;;;;;;4.75;2.20;;;;;;;8.84;62.48;100802.13;10382272;28;20057;-87
2022/09/21 21:29:12;;;;;;;6.35;2.10;;;;;;;8.78;62.45;100799.75;10384125;28;20049;-87
2022/09/21 21:34:15;;;;;;;4.03;1.80;;;;;;;8.76;62.36;100798.97;10382808;28;20052;-87
2022/09/21 21:39:16;;;;;;;6.90;2.20;;;;;;;8.66;62.44;100801.09;10385349;28;20068;-86
2022/09/21 21:44:18;;;;;;;7.32;2.00;;;;;;;8.61;62.69;100804.75;10378237;28;20061;-86
2022/09/21 21:49:20;;;;;;;4.47;2.25;;;;;;;8.56;62.62;100796.28;10381221;28;20049;-87
2022/09/21 21:54:23;;;;;;;9.20;2.50;;;;;;;8.54;62.99;100798.09;10382083;28;20060;-87
2022/09/21 21:59:24;;;;;;;6.45;2.25;;;;;;;8.47;63.07;100800.06;10383172;28;20404;-87
2022/09/21 22:04:26;;;;;;;7.50;2.47;;;;;;;8.42;62.93;100803.75;10379157;28;20058;-86
2022/09/21 22:09:28;;;;;;;7.13;2.42;;;;;;;8.37;63.02;100797.84;10380565;28;20081;-86
2022/09/21 22:14:30;;;;;;;4.95;2.58;;;;;;;8.28;63.21;100796.44;10379903;28;20989;-87
2022/09/21 22:19:32;;;;;;;6.68;2.28;;;;;;;8.12;63.63;100792.69;10381419;28;21050;-87
2022/09/21 22:24:34;;;;;;;4.45;2.05;;;;;;;8.17;63.55;100796.00;10375770;28;20053;-86
2022/09/21 22:29:35;;;;;;;5.13;2.10;;;;;;;8.20;63.55;100795.03;10377183;28;20921;-87
2022/09/21 22:34:37;;;;;;;4.95;2.28;;;;;;;8.16;63.35;100798.66;10378997;28;20061;-86
2022/09/21 22:39:38;;;;;;;8.80;2.30;;;;;;;8.03;63.36;100796.47;10379621;28;21067;-86
2022/09/21 22:44:40;;;;;;;6.50;2.10;;;;;;;7.98;63.39;100790.56;10376500;28;20060;-86
2022/09/21 22:49:42;;;;;;;9.85;2.70;;;;;;;7.91;63.35;100794.28;10377440;28;20464;-86
2022/09/21 22:54:43;;;;;;;5.00;2.20;;;;;;;7.85;63.90;100794.47;10378356;28;20053;-86
2022/09/21 22:59:45;;;;;;;4.75;2.30;;;;;;;7.81;63.86;100789.47;10380151;28;20042;-86
2022/09/21 23:04:47;;;;;;;5.20;2.10;;;;;;;7.75;63.58;100792.28;10378741;28;20057;-86
2022/09/21 23:09:48;;;;;;;10.40;2.22;;;;;;;7.69;63.62;100788.09;10379184;28;20050;-86
2022/09/21 23:14:50;;;;;;;9.00;3.05;;;;;;;7.54;63.49;100793.00;10375641;28;21673;-86
2022/09/21 23:19:51;;;;;;;6.70;2.90;;;;;;;7.40;63.85;100796.06;10377266;28;20064;-85
2022/09/21 23:24:53;;;;;;;7.60;2.40;;;;;;;7.44;64.05;100789.00;10375455;28;20056;-86
2022/09/21 23:29:55;;;;;;;6.30;3.38;;;;;;;7.43;64.04;100798.53;10375490;28;20653;-86
2022/09/21 23:34:57;;;;;;;7.82;3.97;;;;;;;7.35;63.97;100792.75;10377224;28;20418;-85
2022/09/21 23:39:58;;;;;;;8.02;4.50;;;;;;;7.32;64.24;100794.59;10377606;28;20053;-86
2022/09/21 23:45:00;;;;;;;7.97;4.20;;;;;;;7.23;63.98;100800.09;10374782;28;20434;-86
2022/09/21 23:50:02;;;;;;;8.43;3.90;;;;;;;7.17;63.93;100803.75;10375076;28;20052;-86
2022/09/21 23:55:04;;;;;;;6.55;3.28;;;;;;;6.98;64.38;100800.03;10376493;28;20063;-85
